Catàleg de serveis del Meteocat
Campanya meteocatpedra

Dades de l'estació automàtica Canaletes

?
?
Resum diari 21:30 TU
Dades diàries de l'estació meteorològica
Temperatura mitjana 8.6 °C
Temperatura màxima 13.5 °C 14:34 TU
Temperatura mínima 5.3 °C 2:54 TU
Humitat relativa mitjana 77%
Precipitació acumulada 0.5 mm
Ratxa màxima del vent (2 m) 19.1 km/h - 318º 9:38 TU
Irradiació solar global 5.3 MJ/m2

El tram horari està expressat en Temps Universal (TU). Cal sumar una hora en horari d'hivern i dues en horari d'estiu per passar a l'hora oficial.

Canaletes

Metadades estació meteorol´gica
Municipi Mediona
Comarca Alt Penedès
Altitud 325 m
Data alta 17.05.2002
Estat actual Operativa
Dades de període
Període
TU
TM
°C
TX
°C
TN
°C
HRM
%
PPT
mm
VVM (2 m)
km/h
DVM (2 m)
graus
VVX (2 m)
km/h
RS
W/m2
00:00 - 00:30 8.9 9.2 8.0 69 0.0 3.2 47 14.8 0
00:30 - 01:00 8.0 8.7 7.4 73 0.0 1.8 311 7.2 0
01:00 - 01:30 7.4 7.9 6.9 76 0.0 2.2 20 5.8 0
01:30 - 02:00 7.5 7.7 6.9 76 0.0 2.5 304 7.6 0
02:00 - 02:30 6.6 7.1 6.2 81 0.0 1.8 298 5.4 0
02:30 - 03:00 6.5 7.4 5.3 81 0.0 4.0 333 9.0 0
03:00 - 03:30 6.5 7.4 5.7 82 0.0 2.2 11 7.6 0
03:30 - 04:00 6.5 7.0 6.0 82 0.0 1.8 14 4.7 0
04:00 - 04:30 6.3 6.5 5.9 84 0.0 2.5 349 4.7 0
04:30 - 05:00 6.6 7.0 6.3 83 0.0 2.2 18 4.7 0
05:00 - 05:30 6.2 6.6 5.9 85 0.0 1.8 263 3.6 0
05:30 - 06:00 6.3 6.4 6.1 85 0.0 0.4 218 1.8 0
06:00 - 06:30 6.5 6.9 6.2 84 0.0 2.2 274 5.4 0
06:30 - 07:00 6.9 7.0 6.8 83 0.0 5.4 289 11.2 1
07:00 - 07:30 6.9 7.2 6.7 85 0.0 3.6 337 11.2 10
07:30 - 08:00 6.9 7.3 6.6 87 0.1 1.1 265 5.4 10
08:00 - 08:30 6.9 7.0 6.9 88 0.4 3.6 320 9.7 33
08:30 - 09:00 7.3 7.4 7.1 89 0.0 2.2 332 11.2 56
09:00 - 09:30 7.6 8.1 7.4 88 0.0 2.9 330 8.3 95
09:30 - 10:00 8.1 8.3 7.9 84 0.0 7.2 319 19.1 82
10:00 - 10:30 8.4 8.4 8.3 82 0.0 7.6 328 17.6 62
10:30 - 11:00 8.6 8.6 8.4 82 0.0 2.5 342 8.6 62
11:00 - 11:30 9.0 9.4 8.6 79 0.0 6.1 329 13.0 98
11:30 - 12:00 9.9 10.5 9.4 77 0.0 6.8 324 14.8 228
12:00 - 12:30 11.1 11.6 10.6 72 0.0 6.5 323 13.0 303
12:30 - 13:00 11.6 12.7 10.9 70 0.0 4.0 333 10.4 333
13:00 - 13:30 12.3 12.8 11.6 67 0.0 6.5 316 14.4 338
13:30 - 14:00 12.8 13.4 12.0 64 0.0 5.4 310 13.3 421
14:00 - 14:30 13.2 13.4 12.9 64 0.0 6.5 251 13.7 335
14:30 - 15:00 13.2 13.5 12.9 63 0.0 7.2 254 15.5 255
15:00 - 15:30 13.1 13.3 12.8 61 0.0 6.8 267 14.8 176
15:30 - 16:00 12.2 12.8 11.8 64 0.0 6.8 282 14.8 96
16:00 - 16:30 11.1 11.8 10.1 69 0.0 2.9 247 6.8 24
16:30 - 17:00 9.1 9.9 8.5 78 0.0 5.0 305 10.8 0
17:00 - 17:30 9.1 9.3 8.8 79 0.0 4.0 303 7.6 0
17:30 - 18:00 8.4 8.9 7.6 82 0.0 3.2 263 6.5 0
18:00 - 18:30 7.2 8.4 6.7 87 0.0 2.5 280 6.5 0
18:30 - 19:00 6.9 8.4 6.2 86 0.0 2.9 307 8.6 0
19:00 - 19:30 7.3 7.7 6.8 83 0.0 2.2 323 5.0 0
19:30 - 20:00 7.9 9.4 7.0 76 0.0 5.4 277 10.4 0
20:00 - 20:30 8.5 9.2 7.2 67 0.0 2.5 218 12.6 0
20:30 - 21:00 7.6 8.1 7.2 73 0.0 2.5 342 5.4 0
21:00 - 21:30 8.9 9.9 7.8 62 0.0 6.8 310 19.1 0
21:30 - 22:00 9.5 9.8 9.1 58 0.0 8.6 300 16.2 0

Les dades en taronja només han passat un control de qualitat automàtic. Resta pendent la seva validació definitiva.